<?xml version='1.0' encoding='UTF-8'?><gpx version="1.1" creator="JPX - https://github.com/jenetics/jpx" xmlns="http://www.topografix.com/GPX/1/1"><trk><trkseg><trkpt lat="44.15242468327826" lon="9.644595514990767"><ele>97.99999999999999</ele><time>2026-04-12T14:20:44Z</time></trkpt><trkpt lat="44.15244801553386" lon="9.644692190450128"><ele>98.0</ele><time>2026-04-12T14:20:45Z</time></trkpt><trkpt lat="44.15244355544754" lon="9.644808670080629"><ele>98.0</ele><time>2026-04-12T14:20:46Z</time></trkpt><trkpt lat="44.152411455446405" lon="9.644934903302074"><ele>98.0</ele><time>2026-04-12T14:20:47Z</time></trkpt><trkpt lat="44.15232368030959" lon="9.645011237956092"><ele>97.99999999999999</ele><time>2026-04-12T14:20:48Z</time></trkpt><trkpt lat="44.15224674746778" lon="9.645048864813143"><ele>98.0</ele><time>2026-04-12T14:20:49Z</time></trkpt><trkpt lat="44.15215760564588" lon="9.645134989357762"><ele>95.4</ele><time>2026-04-12T14:20:50Z</time></trkpt><trkpt lat="44.15209803127952" lon="9.645257555444154"><ele>92.80000000000001</ele><time>2026-04-12T14:20:51Z</time></trkpt><trkpt lat="44.152083733568425" lon="9.645407371541452"><ele>90.2</ele><time>2026-04-12T14:20:52Z</time></trkpt><trkpt lat="44.15208497265501" lon="9.645557058530617"><ele>87.6</ele><time>2026-04-12T14:20:53Z</time></trkpt><trkpt lat="44.152073233116425" lon="9.645693398858906"><ele>85.0</ele><time>2026-04-12T14:20:54Z</time></trkpt><trkpt lat="44.152041501263334" lon="9.645797606161644"><ele>85.0</ele><time>2026-04-12T14:20:55Z</time></trkpt><trkpt lat="44.15197629097574" lon="9.64584720082363"><ele>85.0</ele><time>2026-04-12T14:20:56Z</time></trkpt><trkpt lat="44.151878042402885" lon="9.64590814114055"><ele>85.0</ele><time>2026-04-12T14:20:57Z</time></trkpt><trkpt lat="44.15176706098392" lon="9.645998028814303"><ele>85.0</ele><time>2026-04-12T14:20:58Z</time></trkpt><trkpt lat="44.15165350029607" lon="9.646105658013798"><ele>85.0</ele><time>2026-04-12T14:20:59Z</time></trkpt><trkpt lat="44.15153145155492" lon="9.646223273204257"><ele>89.66666666666666</ele><time>2026-04-12T14:21:00Z</time></trkpt><trkpt lat="44.151401658021584" lon="9.646347411124617"><ele>94.33333333333333</ele><time>2026-04-12T14:21:01Z</time></trkpt><trkpt lat="44.15127925582176" lon="9.646502494193083"><ele>99.0</ele><time>2026-04-12T14:21:02Z</time></trkpt><trkpt lat="44.151147914178104" lon="9.646628956426788"><ele>99.0</ele><time>2026-04-12T14:21:03Z</time></trkpt><trkpt lat="44.1510183089928" lon="9.646750100331387"><ele>99.0</ele><time>2026-04-12T14:21:04Z</time></trkpt><trkpt lat="44.150881866469895" lon="9.646876598242192"><ele>99.0</ele><time>2026-04-12T14:21:05Z</time></trkpt><trkpt lat="44.15072380599018" lon="9.646964861859065"><ele>102.33333333333334</ele><time>2026-04-12T14:21:06Z</time></trkpt><trkpt lat="44.150566199768086" lon="9.64706411891812"><ele>105.66666666666667</ele><time>2026-04-12T14:21:07Z</time></trkpt><trkpt lat="44.150425093571975" lon="9.647175328632564"><ele>109.0</ele><time>2026-04-12T14:21:08Z</time></trkpt><trkpt lat="44.150282293865025" lon="9.647240329465632"><ele>109.0</ele><time>2026-04-12T14:21:09Z</time></trkpt><trkpt lat="44.15015897208417" lon="9.64731473063929"><ele>109.0</ele><time>2026-04-12T14:21:10Z</time></trkpt><trkpt lat="44.150067559879865" lon="9.647396856056485"><ele>109.0</ele><time>2026-04-12T14:21:11Z</time></trkpt><trkpt lat="44.150002679432625" lon="9.647449220031467"><ele>109.0</ele><time>2026-04-12T14:21:12Z</time></trkpt><trkpt lat="44.14995041899075" lon="9.647593876232964"><ele>109.0</ele><time>2026-04-12T14:21:14Z</time></trkpt><trkpt lat="44.14999193678729" lon="9.647706350590385"><ele>109.6</ele><time>2026-04-12T14:21:15Z</time></trkpt><trkpt lat="44.15004602643433" lon="9.647794461779972"><ele>110.2</ele><time>2026-04-12T14:21:16Z</time></trkpt><trkpt lat="44.150126039626066" lon="9.647878220020344"><ele>110.79999999999998</ele><time>2026-04-12T14:21:17Z</time></trkpt><trkpt lat="44.15021969240176" lon="9.647965517370793"><ele>111.39999999999999</ele><time>2026-04-12T14:21:18Z</time></trkpt><trkpt lat="44.1502998829239" lon="9.648051523604389"><ele>112.0</ele><time>2026-04-12T14:21:19Z</time></trkpt><trkpt lat="44.15035512027025" lon="9.648146615020714"><ele>112.00000000000001</ele><time>2026-04-12T14:21:20Z</time></trkpt><trkpt lat="44.1503768935012" lon="9.648253988065845"><ele>112.0</ele><time>2026-04-12T14:21:21Z</time></trkpt><trkpt lat="44.150301532071786" lon="9.648343338547289"><ele>112.0</ele><time>2026-04-12T14:21:22Z</time></trkpt><trkpt lat="44.15024249172776" lon="9.648379752328067"><ele>112.0</ele><time>2026-04-12T14:21:23Z</time></trkpt><trkpt lat="44.1501679287775" lon="9.648421181751422"><ele>112.00000000000001</ele><time>2026-04-12T14:21:24Z</time></trkpt><trkpt lat="44.15007996026131" lon="9.648484677287072"><ele>112.0</ele><time>2026-04-12T14:21:25Z</time></trkpt><trkpt lat="44.14999463430787" lon="9.648549425144274"><ele>112.00000000000001</ele><time>2026-04-12T14:21:26Z</time></trkpt><trkpt lat="44.14991870673164" lon="9.648615745023632"><ele>112.0</ele><time>2026-04-12T14:21:27Z</time></trkpt><trkpt lat="44.14987789977608" lon="9.648715123889724"><ele>112.0</ele><time>2026-04-12T14:21:28Z</time></trkpt><trkpt lat="44.149892498544574" lon="9.64883067096388"><ele>112.0</ele><time>2026-04-12T14:21:29Z</time></trkpt><trkpt lat="44.14995773870229" lon="9.648908995927362"><ele>112.00000000000001</ele><time>2026-04-12T14:21:30Z</time></trkpt><trkpt lat="44.150031231487894" lon="9.648937559914659"><ele>112.0</ele><time>2026-04-12T14:21:31Z</time></trkpt><trkpt lat="44.15012565999353" lon="9.64893565084396"><ele>110.75</ele><time>2026-04-12T14:21:32.001Z</time></trkpt><trkpt lat="44.15026773722479" lon="9.648912210364996"><ele>109.5</ele><time>2026-04-12T14:21:33.001Z</time></trkpt><trkpt lat="44.15039112601484" lon="9.648912300840152"><ele>108.25</ele><time>2026-04-12T14:21:34.001Z</time></trkpt><trkpt lat="44.15052178921068" lon="9.648912593205193"><ele>107.0</ele><time>2026-04-12T14:21:35.001Z</time></trkpt><trkpt lat="44.15066439412813" lon="9.64891921700203"><ele>111.75</ele><time>2026-04-12T14:21:36.001Z</time></trkpt><trkpt lat="44.15080332289915" lon="9.648920467482412"><ele>116.5</ele><time>2026-04-12T14:21:37.001Z</time></trkpt><trkpt lat="44.15094092103883" lon="9.648932486321787"><ele>121.25</ele><time>2026-04-12T14:21:38.001Z</time></trkpt><trkpt lat="44.15107300697998" lon="9.648994730709044"><ele>126.0</ele><time>2026-04-12T14:21:39.001Z</time></trkpt><trkpt lat="44.15120095116832" lon="9.64905733036084"><ele>126.0</ele><time>2026-04-12T14:21:40.001Z</time></trkpt><trkpt lat="44.15132296073357" lon="9.649100495453299"><ele>126.0</ele><time>2026-04-12T14:21:41.001Z</time></trkpt><trkpt lat="44.15138996118111" lon="9.649224281178952"><ele>126.0</ele><time>2026-04-12T14:21:42.001Z</time></trkpt><trkpt lat="44.151445348823025" lon="9.649330395691239"><ele>126.0</ele><time>2026-04-12T14:21:43.001Z</time></trkpt><trkpt lat="44.15145138339466" lon="9.649444031848304"><ele>126.0</ele><time>2026-04-12T14:21:44.001Z</time></trkpt><trkpt lat="44.151449558316195" lon="9.649555006958911"><ele>126.6</ele><time>2026-04-12T14:21:45.001Z</time></trkpt><trkpt lat="44.15138776325085" lon="9.649602112051069"><ele>127.19999999999999</ele><time>2026-04-12T14:21:46.001Z</time></trkpt><trkpt lat="44.15132653281072" lon="9.649697765317683"><ele>127.80000000000001</ele><time>2026-04-12T14:21:47.001Z</time></trkpt><trkpt lat="44.15124339914171" lon="9.649809460011758"><ele>128.4</ele><time>2026-04-12T14:21:48.001Z</time></trkpt><trkpt lat="44.15115671235416" lon="9.649955162161108"><ele>129.0</ele><time>2026-04-12T14:21:49.001Z</time></trkpt><trkpt lat="44.15107246021159" lon="9.650118853150238"><ele>129.0</ele><time>2026-04-12T14:21:50.001Z</time></trkpt><trkpt lat="44.15099621736986" lon="9.6502889274127"><ele>129.0</ele><time>2026-04-12T14:21:51.001Z</time></trkpt><trkpt lat="44.150911766294584" lon="9.65043835279641"><ele>129.0</ele><time>2026-04-12T14:21:52.001Z</time></trkpt><trkpt lat="44.15083108873091" lon="9.650546151146044"><ele>129.0</ele><time>2026-04-12T14:21:53.001Z</time></trkpt><trkpt lat="44.15076508277482" lon="9.650635819523895"><ele>130.66666666666666</ele><time>2026-04-12T14:21:54.001Z</time></trkpt><trkpt lat="44.15074167427502" lon="9.650736927369273"><ele>132.33333333333334</ele><time>2026-04-12T14:21:55.001Z</time></trkpt><trkpt lat="44.15073425604708" lon="9.650828818711316"><ele>134.0</ele><time>2026-04-12T14:21:56.001Z</time></trkpt><trkpt lat="44.15078935514357" lon="9.650928434949098"><ele>135.66666666666669</ele><time>2026-04-12T14:21:57.001Z</time></trkpt><trkpt lat="44.150880641996864" lon="9.650968795787938"><ele>137.33333333333334</ele><time>2026-04-12T14:21:58.001Z</time></trkpt><trkpt lat="44.15096106398807" lon="9.650963872523716"><ele>139.0</ele><time>2026-04-12T14:21:59.001Z</time></trkpt><trkpt lat="44.15102308076821" lon="9.650901569910351"><ele>139.0</ele><time>2026-04-12T14:22:00.001Z</time></trkpt><trkpt lat="44.15105965880693" lon="9.650796796223416"><ele>139.0</ele><time>2026-04-12T14:22:01.001Z</time></trkpt><trkpt lat="44.15108058971788" lon="9.650660881635945"><ele>139.0</ele><time>2026-04-12T14:22:02.001Z</time></trkpt><trkpt lat="44.15111854767716" lon="9.65052138717623"><ele>139.0</ele><time>2026-04-12T14:22:03.001Z</time></trkpt><trkpt lat="44.15117939147932" lon="9.650401690938352"><ele>139.0</ele><time>2026-04-12T14:22:04.001Z</time></trkpt><trkpt lat="44.15125274350723" lon="9.650291807053996"><ele>136.5</ele><time>2026-04-12T14:22:05.001Z</time></trkpt><trkpt lat="44.15134243522117" lon="9.650187587471184"><ele>134.0</ele><time>2026-04-12T14:22:06.001Z</time></trkpt><trkpt lat="44.1514466409356" lon="9.65010381752499"><ele>131.5</ele><time>2026-04-12T14:22:07.001Z</time></trkpt><trkpt lat="44.15155816173096" lon="9.650026829391521"><ele>129.0</ele><time>2026-04-12T14:22:08.001Z</time></trkpt><trkpt lat="44.151668827783915" lon="9.649946122313162"><ele>136.25</ele><time>2026-04-12T14:22:09.001Z</time></trkpt><trkpt lat="44.151770824822066" lon="9.649862272715826"><ele>143.5</ele><time>2026-04-12T14:22:10.001Z</time></trkpt><trkpt lat="44.151861791839295" lon="9.649749707671548"><ele>150.75</ele><time>2026-04-12T14:22:11.001Z</time></trkpt><trkpt lat="44.15193931562066" lon="9.64960440890585"><ele>158.0</ele><time>2026-04-12T14:22:12.001Z</time></trkpt><trkpt lat="44.15200276213408" lon="9.649464347990188"><ele>156.8</ele><time>2026-04-12T14:22:13.001Z</time></trkpt><trkpt lat="44.15203884896949" lon="9.649340901768337"><ele>155.60000000000002</ele><time>2026-04-12T14:22:14.001Z</time></trkpt><trkpt lat="44.1520316419325" lon="9.64921641560405"><ele>154.39999999999998</ele><time>2026-04-12T14:22:15.001Z</time></trkpt><trkpt lat="44.151991530123" lon="9.649100050677607"><ele>153.2</ele><time>2026-04-12T14:22:16.001Z</time></trkpt><trkpt lat="44.15191282163179" lon="9.648999538320501"><ele>152.0</ele><time>2026-04-12T14:22:17.001Z</time></trkpt><trkpt lat="44.151822187312504" lon="9.648893249356655"><ele>152.0</ele><time>2026-04-12T14:22:18.001Z</time></trkpt><trkpt lat="44.15174357159853" lon="9.648784653458781"><ele>152.0</ele><time>2026-04-12T14:22:18.999Z</time></trkpt><trkpt lat="44.15168721957633" lon="9.648670483114156"><ele>152.0</ele><time>2026-04-12T14:22:19.999Z</time></trkpt><trkpt lat="44.15165955505018" lon="9.648544487062061"><ele>152.0</ele><time>2026-04-12T14:22:20.999Z</time></trkpt><trkpt lat="44.15164774116259" lon="9.648407763762279"><ele>152.0</ele><time>2026-04-12T14:22:21.999Z</time></trkpt><trkpt lat="44.15164016240034" lon="9.648271709855612"><ele>153.83333333333331</ele><time>2026-04-12T14:22:22.999Z</time></trkpt><trkpt lat="44.15164085807055" lon="9.648158951597994"><ele>155.66666666666666</ele><time>2026-04-12T14:22:23.999Z</time></trkpt><trkpt lat="44.15165880382937" lon="9.648065454851142"><ele>157.5</ele><time>2026-04-12T14:22:24.999Z</time></trkpt><trkpt lat="44.1517066593837" lon="9.64797518154508"><ele>159.33333333333334</ele><time>2026-04-12T14:22:25.999Z</time></trkpt><trkpt lat="44.1517828456236" lon="9.647899841331425"><ele>161.16666666666669</ele><time>2026-04-12T14:22:26.999Z</time></trkpt><trkpt lat="44.151878595903334" lon="9.647846124942047"><ele>163.0</ele><time>2026-04-12T14:22:27.999Z</time></trkpt><trkpt lat="44.151997546711215" lon="9.647820471131261"><ele>162.5</ele><time>2026-04-12T14:22:28.999Z</time></trkpt><trkpt lat="44.15213640659795" lon="9.647786892333169"><ele>162.0</ele><time>2026-04-12T14:22:29.999Z</time></trkpt><trkpt lat="44.15227594242088" lon="9.647730988249094"><ele>161.5</ele><time>2026-04-12T14:22:30.999Z</time></trkpt><trkpt lat="44.152386590943145" lon="9.647668133444164"><ele>161.0</ele><time>2026-04-12T14:22:31.999Z</time></trkpt><trkpt lat="44.15247103325946" lon="9.647627997331417"><ele>161.0</ele><time>2026-04-12T14:22:32.999Z</time></trkpt><trkpt lat="44.152542098847455" lon="9.647627144213565"><ele>161.0</ele><time>2026-04-12T14:22:33.999Z</time></trkpt><trkpt lat="44.152606823043925" lon="9.647667755084788"><ele>161.0</ele><time>2026-04-12T14:22:34.999Z</time></trkpt><trkpt lat="44.152657104468055" lon="9.64775650270747"><ele>161.0</ele><time>2026-04-12T14:22:35.999Z</time></trkpt><trkpt lat="44.15264723055545" lon="9.647906213461969"><ele>161.0</ele><time>2026-04-12T14:22:37Z</time></trkpt><trkpt lat="44.15269823016881" lon="9.648027714252294"><ele>161.0</ele><time>2026-04-12T14:22:38Z</time></trkpt><trkpt lat="44.152775392810085" lon="9.64813125318883"><ele>167.5</ele><time>2026-04-12T14:22:39Z</time></trkpt><trkpt lat="44.152873381790926" lon="9.648207979897867"><ele>174.0</ele><time>2026-04-12T14:22:40Z</time></trkpt><trkpt lat="44.15298970037637" lon="9.64824275702418"><ele>180.5</ele><time>2026-04-12T14:22:41Z</time></trkpt><trkpt lat="44.15312612325289" lon="9.648231313089093"><ele>187.0</ele><time>2026-04-12T14:22:42Z</time></trkpt><trkpt lat="44.15327184283308" lon="9.648175055479237"><ele>188.66666666666669</ele><time>2026-04-12T14:22:43Z</time></trkpt><trkpt lat="44.15342916946178" lon="9.648116675203537"><ele>190.33333333333334</ele><time>2026-04-12T14:22:44Z</time></trkpt><trkpt lat="44.15359945662876" lon="9.648056419491867"><ele>192.0</ele><time>2026-04-12T14:22:45Z</time></trkpt><trkpt lat="44.153779243330746" lon="9.647981759200835"><ele>192.0</ele><time>2026-04-12T14:22:46Z</time></trkpt><trkpt lat="44.153968266537056" lon="9.647893362201893"><ele>192.0</ele><time>2026-04-12T14:22:47Z</time></trkpt><trkpt lat="44.154163535747685" lon="9.647806199922805"><ele>192.0</ele><time>2026-04-12T14:22:48Z</time></trkpt><trkpt lat="44.15436321892099" lon="9.647721026326712"><ele>189.0</ele><time>2026-04-12T14:22:49Z</time></trkpt><trkpt lat="44.15454968723372" lon="9.64764164075779"><ele>186.0</ele><time>2026-04-12T14:22:50Z</time></trkpt><trkpt lat="44.15472478595745" lon="9.647565361129365"><ele>183.0</ele><time>2026-04-12T14:22:51Z</time></trkpt><trkpt lat="44.15489145314434" lon="9.647497715880464"><ele>189.33333333333331</ele><time>2026-04-12T14:22:52Z</time></trkpt><trkpt lat="44.15505166863587" lon="9.64742990392316"><ele>195.66666666666666</ele><time>2026-04-12T14:22:53Z</time></trkpt><trkpt lat="44.155199835979055" lon="9.647363611456118"><ele>202.0</ele><time>2026-04-12T14:22:54Z</time></trkpt><trkpt lat="44.155345486070146" lon="9.647300710434726"><ele>202.0</ele><time>2026-04-12T14:22:55Z</time></trkpt><trkpt lat="44.15549811516442" lon="9.64724089619279"><ele>202.0</ele><time>2026-04-12T14:22:56Z</time></trkpt><trkpt lat="44.155645057528936" lon="9.647176849558958"><ele>202.0</ele><time>2026-04-12T14:22:57Z</time></trkpt><trkpt lat="44.15579615490889" lon="9.64712144656362"><ele>208.66666666666666</ele><time>2026-04-12T14:22:58Z</time></trkpt><trkpt lat="44.15595827847323" lon="9.647085571883736"><ele>215.33333333333331</ele><time>2026-04-12T14:22:59Z</time></trkpt><trkpt lat="44.15612597110615" lon="9.647061161591132"><ele>222.0</ele><time>2026-04-12T14:23:00Z</time></trkpt><trkpt lat="44.156297579495245" lon="9.647011623973045"><ele>220.0</ele><time>2026-04-12T14:23:01Z</time></trkpt><trkpt lat="44.15645962914237" lon="9.646922645520167"><ele>218.0</ele><time>2026-04-12T14:23:02Z</time></trkpt><trkpt lat="44.15660596961848" lon="9.646830061434462"><ele>216.0</ele><time>2026-04-12T14:23:03Z</time></trkpt><trkpt lat="44.156729681759785" lon="9.646758534559192"><ele>216.0</ele><time>2026-04-12T14:23:04Z</time></trkpt><trkpt lat="44.156849196644636" lon="9.646678651096328"><ele>216.0</ele><time>2026-04-12T14:23:05Z</time></trkpt><trkpt lat="44.156956652754396" lon="9.646575006494976"><ele>216.0</ele><time>2026-04-12T14:23:06Z</time></trkpt><trkpt lat="44.157021443339026" lon="9.646446125920217"><ele>216.0</ele><time>2026-04-12T14:23:07Z</time></trkpt><trkpt lat="44.1570676066188" lon="9.646337526236842"><ele>216.0</ele><time>2026-04-12T14:23:08Z</time></trkpt><trkpt lat="44.157104843118276" lon="9.646238439256267"><ele>216.00000000000003</ele><time>2026-04-12T14:23:09Z</time></trkpt><trkpt lat="44.15708915624064" lon="9.64610572650102"><ele>216.00000000000003</ele><time>2026-04-12T14:23:10Z</time></trkpt><trkpt lat="44.157017958573476" lon="9.645973314412121"><ele>216.0</ele><time>2026-04-12T14:23:11Z</time></trkpt><trkpt lat="44.15699387835519" lon="9.645845707517411"><ele>216.0</ele><time>2026-04-12T14:23:12Z</time></trkpt><trkpt lat="44.156990063492636" lon="9.645744304512327"><ele>215.0</ele><time>2026-04-12T14:23:13Z</time></trkpt><trkpt lat="44.15702689648884" lon="9.645653429407849"><ele>214.0</ele><time>2026-04-12T14:23:14Z</time></trkpt><trkpt lat="44.15708249369984" lon="9.645578249213848"><ele>213.0</ele><time>2026-04-12T14:23:15Z</time></trkpt><trkpt lat="44.157151537997315" lon="9.645524617827027"><ele>212.0</ele><time>2026-04-12T14:23:16Z</time></trkpt><trkpt lat="44.15724071072419" lon="9.64546691266734"><ele>211.0</ele><time>2026-04-12T14:23:17Z</time></trkpt><trkpt lat="44.15734601761122" lon="9.645405099087863"><ele>210.0</ele><time>2026-04-12T14:23:18Z</time></trkpt><trkpt lat="44.157456573052706" lon="9.64531947754124"><ele>213.75</ele><time>2026-04-12T14:23:19Z</time></trkpt><trkpt lat="44.15757068747414" lon="9.645219187543962"><ele>217.5</ele><time>2026-04-12T14:23:20Z</time></trkpt><trkpt lat="44.157688029582395" lon="9.64510955884912"><ele>221.25</ele><time>2026-04-12T14:23:21Z</time></trkpt><trkpt lat="44.1578044058155" lon="9.644989828501256"><ele>225.0</ele><time>2026-04-12T14:23:22Z</time></trkpt><trkpt lat="44.15791873210282" lon="9.64486771197583"><ele>225.0</ele><time>2026-04-12T14:23:23Z</time></trkpt><trkpt lat="44.158000824966535" lon="9.644739963066472"><ele>225.0</ele><time>2026-04-12T14:23:24Z</time></trkpt><trkpt lat="44.15805821800511" lon="9.644614622821631"><ele>225.0</ele><time>2026-04-12T14:23:25Z</time></trkpt><trkpt lat="44.15811695985411" lon="9.64450015414932"><ele>225.0</ele><time>2026-04-12T14:23:26Z</time></trkpt><trkpt lat="44.1581456341184" lon="9.644387845910726"><ele>225.0</ele><time>2026-04-12T14:23:27Z</time></trkpt><trkpt lat="44.158185582526905" lon="9.644318056285256"><ele>229.0</ele><time>2026-04-12T14:23:28Z</time></trkpt><trkpt lat="44.158300741414585" lon="9.64433548354535"><ele>233.0</ele><time>2026-04-12T14:23:30Z</time></trkpt><trkpt lat="44.15835081494225" lon="9.64439351174554"><ele>237.0</ele><time>2026-04-12T14:23:31Z</time></trkpt><trkpt lat="44.158366795002145" lon="9.644508925504516"><ele>241.0</ele><time>2026-04-12T14:23:32Z</time></trkpt><trkpt lat="44.158362522355155" lon="9.644625119745038"><ele>245.0</ele><time>2026-04-12T14:23:33Z</time></trkpt><trkpt lat="44.15835042635307" lon="9.64474018524884"><ele>249.0</ele><time>2026-04-12T14:23:34Z</time></trkpt><trkpt lat="44.15832133672176" lon="9.644835044808465"><ele>250.33333333333334</ele><time>2026-04-12T14:23:35Z</time></trkpt><trkpt lat="44.15825660375377" lon="9.644888481811877"><ele>251.66666666666669</ele><time>2026-04-12T14:23:36Z</time></trkpt><trkpt lat="44.15818236874729" lon="9.64493332257854"><ele>253.0</ele><time>2026-04-12T14:23:37Z</time></trkpt><trkpt lat="44.15810128300202" lon="9.645004542966225"><ele>254.33333333333334</ele><time>2026-04-12T14:23:38Z</time></trkpt><trkpt lat="44.15803500311142" lon="9.645086684595718"><ele>255.66666666666669</ele><time>2026-04-12T14:23:39Z</time></trkpt><trkpt lat="44.157985828752246" lon="9.645168169789114"><ele>257.0</ele><time>2026-04-12T14:23:40Z</time></trkpt><trkpt lat="44.15797539504098" lon="9.645320865630387"><ele>252.0</ele><time>2026-04-12T14:23:41Z</time></trkpt><trkpt lat="44.15803558885028" lon="9.645470250593478"><ele>247.0</ele><time>2026-04-12T14:23:42Z</time></trkpt><trkpt lat="44.15804999310253" lon="9.645636510239358"><ele>242.0</ele><time>2026-04-12T14:23:43Z</time></trkpt><trkpt lat="44.15808198005043" lon="9.645812225039414"><ele>237.0</ele><time>2026-04-12T14:23:44Z</time></trkpt><trkpt lat="44.15811480685427" lon="9.645989095076073"><ele>237.0</ele><time>2026-04-12T14:23:45Z</time></trkpt><trkpt lat="44.1581630532346" lon="9.64613285939949"><ele>237.0</ele><time>2026-04-12T14:23:46Z</time></trkpt><trkpt lat="44.158196492208404" lon="9.646246658897462"><ele>237.0</ele><time>2026-04-12T14:23:47Z</time></trkpt><trkpt lat="44.1582625693497" lon="9.646310637084857"><ele>237.0</ele><time>2026-04-12T14:23:48Z</time></trkpt><trkpt lat="44.158349317216334" lon="9.646356115269102"><ele>237.0</ele><time>2026-04-12T14:23:49Z</time></trkpt><trkpt lat="44.158461310185515" lon="9.646370969855207"><ele>242.0</ele><time>2026-04-12T14:23:50Z</time></trkpt><trkpt lat="44.158581669145825" lon="9.646388127391928"><ele>247.0</ele><time>2026-04-12T14:23:51Z</time></trkpt><trkpt lat="44.15870001212589" lon="9.64640618367416"><ele>252.0</ele><time>2026-04-12T14:23:52Z</time></trkpt><trkpt lat="44.158824137704784" lon="9.646400111766248"><ele>257.0</ele><time>2026-04-12T14:23:53Z</time></trkpt><trkpt lat="44.158952864794415" lon="9.646363114135038"><ele>260.0</ele><time>2026-04-12T14:23:54Z</time></trkpt><trkpt lat="44.1590765094302" lon="9.646321148277961"><ele>263.0</ele><time>2026-04-12T14:23:55Z</time></trkpt><trkpt lat="44.15921351754011" lon="9.646303205542793"><ele>266.0</ele><time>2026-04-12T14:23:56Z</time></trkpt><trkpt lat="44.15934848631447" lon="9.646371504754034"><ele>269.0</ele><time>2026-04-12T14:23:57Z</time></trkpt><trkpt lat="44.15946500451124" lon="9.646433664793983"><ele>269.0</ele><time>2026-04-12T14:23:58Z</time></trkpt><trkpt lat="44.1595398138259" lon="9.646495007818217"><ele>269.0</ele><time>2026-04-12T14:23:59Z</time></trkpt><trkpt lat="44.15958234052313" lon="9.646598500458337"><ele>269.0</ele><time>2026-04-12T14:24:00.001Z</time></trkpt><trkpt lat="44.15961009227596" lon="9.646722742533983"><ele>269.0</ele><time>2026-04-12T14:24:01.001Z</time></trkpt><trkpt lat="44.15967329357274" lon="9.64680078870406"><ele>269.0</ele><time>2026-04-12T14:24:02.001Z</time></trkpt><trkpt lat="44.15974915041573" lon="9.646865083348063"><ele>269.0</ele><time>2026-04-12T14:24:03.001Z</time></trkpt><trkpt lat="44.15985812213106" lon="9.646890983581129"><ele>274.25</ele><time>2026-04-12T14:24:04.001Z</time></trkpt><trkpt lat="44.15998779107151" lon="9.646895106494043"><ele>279.5</ele><time>2026-04-12T14:24:05.001Z</time></trkpt><trkpt lat="44.16012104407394" lon="9.646862158067497"><ele>284.75</ele><time>2026-04-12T14:24:06.001Z</time></trkpt><trkpt lat="44.16024078877812" lon="9.646795404226912"><ele>290.0</ele><time>2026-04-12T14:24:07.001Z</time></trkpt><trkpt lat="44.16034165677241" lon="9.646745282167885"><ele>290.0</ele><time>2026-04-12T14:24:08.001Z</time></trkpt><trkpt lat="44.160421812585405" lon="9.646772264818889"><ele>290.0</ele><time>2026-04-12T14:24:09.001Z</time></trkpt><trkpt lat="44.16049443038925" lon="9.646866140078215"><ele>290.0</ele><time>2026-04-12T14:24:10.001Z</time></trkpt><trkpt lat="44.16057425757614" lon="9.64690196678589"><ele>290.0</ele><time>2026-04-12T14:24:11.001Z</time></trkpt><trkpt lat="44.16067293416236" lon="9.646922312587417"><ele>290.0</ele><time>2026-04-12T14:24:12.001Z</time></trkpt><trkpt lat="44.16078285338738" lon="9.646907156904957"><ele>287.5</ele><time>2026-04-12T14:24:13.001Z</time></trkpt><trkpt lat="44.160884324655896" lon="9.646876953885393"><ele>285.0</ele><time>2026-04-12T14:24:14.001Z</time></trkpt><trkpt lat="44.16097138919497" lon="9.64685266553349"><ele>282.5</ele><time>2026-04-12T14:24:15.001Z</time></trkpt><trkpt lat="44.16104483579351" lon="9.646848271002133"><ele>280.0</ele><time>2026-04-12T14:24:16.001Z</time></trkpt><trkpt lat="44.161111027839596" lon="9.646887136119803"><ele>277.5</ele><time>2026-04-12T14:24:17.001Z</time></trkpt><trkpt lat="44.161165290163" lon="9.646967387150333"><ele>275.0</ele><time>2026-04-12T14:24:18.001Z</time></trkpt><trkpt lat="44.161171023477195" lon="9.647086880528226"><ele>275.0</ele><time>2026-04-12T14:24:19.001Z</time></trkpt><trkpt lat="44.16119213106248" lon="9.647203121559395"><ele>275.0</ele><time>2026-04-12T14:24:20.001Z</time></trkpt><trkpt lat="44.16123168616739" lon="9.647306182315317"><ele>275.0</ele><time>2026-04-12T14:24:21.001Z</time></trkpt><trkpt lat="44.161266475362495" lon="9.647404854886835"><ele>275.0</ele><time>2026-04-12T14:24:22.001Z</time></trkpt><trkpt lat="44.16130573654285" lon="9.64749332227507"><ele>275.0</ele><time>2026-04-12T14:24:23.001Z</time></trkpt><trkpt lat="44.16139913167178" lon="9.647515019097492"><ele>275.0</ele><time>2026-04-12T14:24:24.001Z</time></trkpt><trkpt lat="44.16149126182335" lon="9.647522400926436"><ele>278.2</ele><time>2026-04-12T14:24:24.999Z</time></trkpt><trkpt lat="44.161583803662786" lon="9.647538964376732"><ele>281.4</ele><time>2026-04-12T14:24:25.999Z</time></trkpt><trkpt lat="44.161653293353034" lon="9.647623018191014"><ele>284.6</ele><time>2026-04-12T14:24:26.999Z</time></trkpt><trkpt lat="44.16171194278443" lon="9.647727141890261"><ele>287.8</ele><time>2026-04-12T14:24:27.999Z</time></trkpt><trkpt lat="44.16177761668841" lon="9.647836010838624"><ele>291.0</ele><time>2026-04-12T14:24:28.999Z</time></trkpt><trkpt lat="44.16185801120196" lon="9.647932381502782"><ele>291.0</ele><time>2026-04-12T14:24:29.999Z</time></trkpt><trkpt lat="44.16195536928982" lon="9.64797982450191"><ele>291.0</ele><time>2026-04-12T14:24:30.999Z</time></trkpt><trkpt lat="44.162039923566134" lon="9.648024177697721"><ele>291.0</ele><time>2026-04-12T14:24:31.999Z</time></trkpt><trkpt lat="44.1620898542112" lon="9.648097168196536"><ele>291.0</ele><time>2026-04-12T14:24:32.999Z</time></trkpt><trkpt lat="44.16209799182531" lon="9.648207764010467"><ele>291.0</ele><time>2026-04-12T14:24:33.999Z</time></trkpt><trkpt lat="44.16209576589844" lon="9.648308112835789"><ele>291.0</ele><time>2026-04-12T14:24:34.999Z</time></trkpt><trkpt lat="44.162112046008545" lon="9.648425508478137"><ele>291.0</ele><time>2026-04-12T14:24:35.999Z</time></trkpt><trkpt lat="44.162123815106156" lon="9.648541293393354"><ele>291.0</ele><time>2026-04-12T14:24:36.999Z</time></trkpt><trkpt lat="44.16213135379588" lon="9.648664192890964"><ele>291.0</ele><time>2026-04-12T14:24:37.999Z</time></trkpt><trkpt lat="44.16211427831465" lon="9.648775102327932"><ele>291.0</ele><time>2026-04-12T14:24:38.999Z</time></trkpt><trkpt lat="44.16207666910066" lon="9.64888001394804"><ele>291.0</ele><time>2026-04-12T14:24:39.999Z</time></trkpt><trkpt lat="44.162010039581254" lon="9.648965613454019"><ele>291.0</ele><time>2026-04-12T14:24:40.999Z</time></trkpt><trkpt lat="44.16194171395683" lon="9.6490519869354"><ele>292.3333333333333</ele><time>2026-04-12T14:24:41.999Z</time></trkpt><trkpt lat="44.16189341628506" lon="9.649149421403793"><ele>293.6666666666667</ele><time>2026-04-12T14:24:42.999Z</time></trkpt><trkpt lat="44.161837462558665" lon="9.649216029732981"><ele>295.0</ele><time>2026-04-12T14:24:43.999Z</time></trkpt><trkpt lat="44.16181886964543" lon="9.6493195247029"><ele>296.33333333333337</ele><time>2026-04-12T14:24:44.999Z</time></trkpt><trkpt lat="44.16184859904964" lon="9.649429829093707"><ele>297.6666666666667</ele><time>2026-04-12T14:24:45.999Z</time></trkpt><trkpt lat="44.16189155314367" lon="9.649530289785636"><ele>299.0</ele><time>2026-04-12T14:24:47Z</time></trkpt><trkpt lat="44.161960662660576" lon="9.649623872992446"><ele>299.0</ele><time>2026-04-12T14:24:48Z</time></trkpt><trkpt lat="44.16204809694803" lon="9.649691944877233"><ele>299.0</ele><time>2026-04-12T14:24:49Z</time></trkpt><trkpt lat="44.1621476595966" lon="9.649724571068147"><ele>299.0</ele><time>2026-04-12T14:24:50Z</time></trkpt><trkpt lat="44.16224982310102" lon="9.649715784088247"><ele>299.0</ele><time>2026-04-12T14:24:51Z</time></trkpt><trkpt lat="44.16233666169981" lon="9.649673314382982"><ele>299.0</ele><time>2026-04-12T14:24:52Z</time></trkpt><trkpt lat="44.162420924156734" lon="9.649637030077258"><ele>303.0</ele><time>2026-04-12T14:24:53Z</time></trkpt><trkpt lat="44.16251080532161" lon="9.649590089672275"><ele>307.0</ele><time>2026-04-12T14:24:54Z</time></trkpt><trkpt lat="44.162610558292606" lon="9.649531745715917"><ele>311.0</ele><time>2026-04-12T14:24:55Z</time></trkpt><trkpt lat="44.16270689706853" lon="9.649492976145309"><ele>315.0</ele><time>2026-04-12T14:24:56Z</time></trkpt><trkpt lat="44.162784303120596" lon="9.649468848771807"><ele>319.0</ele><time>2026-04-12T14:24:57Z</time></trkpt><trkpt lat="44.16288733628356" lon="9.64942755297702"><ele>320.2857142857143</ele><time>2026-04-12T14:24:59Z</time></trkpt><trkpt lat="44.16295511384714" lon="9.649416084207388"><ele>321.57142857142856</ele><time>2026-04-12T14:25:01Z</time></trkpt><trkpt lat="44.163020982207065" lon="9.649404685656105"><ele>322.85714285714283</ele><time>2026-04-12T14:25:04Z</time></trkpt><trkpt lat="44.163095023760775" lon="9.649377340440031"><ele>324.1428571428571</ele><time>2026-04-12T14:25:06Z</time></trkpt><trkpt lat="44.16317084392607" lon="9.64935891503603"><ele>325.42857142857144</ele><time>2026-04-12T14:25:07Z</time></trkpt><trkpt lat="44.16323417537752" lon="9.649304121412916"><ele>326.71428571428567</ele><time>2026-04-12T14:25:08Z</time></trkpt><trkpt lat="44.163308963682965" lon="9.649265514090473"><ele>328.0</ele><time>2026-04-12T14:25:09Z</time></trkpt><trkpt lat="44.16338969734426" lon="9.649245947233812"><ele>328.66666666666663</ele><time>2026-04-12T14:25:10Z</time></trkpt><trkpt lat="44.16347201613689" lon="9.649247904703318"><ele>329.3333333333333</ele><time>2026-04-12T14:25:11Z</time></trkpt><trkpt lat="44.163564440593376" lon="9.649277620314447"><ele>330.0</ele><time>2026-04-12T14:25:12Z</time></trkpt><trkpt lat="44.16365026256778" lon="9.649334114505109"><ele>330.6666666666667</ele><time>2026-04-12T14:25:13Z</time></trkpt><trkpt lat="44.16372306065685" lon="9.649404451984683"><ele>331.33333333333337</ele><time>2026-04-12T14:25:14Z</time></trkpt><trkpt lat="44.163780746841894" lon="9.649466339618831"><ele>332.0</ele><time>2026-04-12T14:25:15Z</time></trkpt><trkpt lat="44.16383765747355" lon="9.649566975595315"><ele>332.5</ele><time>2026-04-12T14:25:17Z</time></trkpt><trkpt lat="44.16379024862088" lon="9.649673375365214"><ele>333.0</ele><time>2026-04-12T14:25:19Z</time></trkpt><trkpt lat="44.16370204755465" lon="9.649660408956382"><ele>333.5</ele><time>2026-04-12T14:25:21Z</time></trkpt><trkpt lat="44.16365264111648" lon="9.649598904937802"><ele>334.0</ele><time>2026-04-12T14:25:22Z</time></trkpt><trkpt lat="44.16359142801232" lon="9.649538772377964"><ele>334.5</ele><time>2026-04-12T14:25:23Z</time></trkpt><trkpt lat="44.163509376185345" lon="9.649494073660842"><ele>335.0</ele><time>2026-04-12T14:25:24Z</time></trkpt><trkpt lat="44.16341053613082" lon="9.64947760452309"><ele>335.0</ele><time>2026-04-12T14:25:25Z</time></trkpt><trkpt lat="44.163311523355475" lon="9.649494971511732"><ele>335.0</ele><time>2026-04-12T14:25:26Z</time></trkpt><trkpt lat="44.16322275522812" lon="9.649547796620492"><ele>335.0</ele><time>2026-04-12T14:25:27Z</time></trkpt><trkpt lat="44.16316059979753" lon="9.64963731327519"><ele>335.0</ele><time>2026-04-12T14:25:28Z</time></trkpt><trkpt lat="44.163135068868456" lon="9.649747745455576"><ele>335.0</ele><time>2026-04-12T14:25:29Z</time></trkpt><trkpt lat="44.16313963181609" lon="9.649872227088805"><ele>335.0</ele><time>2026-04-12T14:25:30Z</time></trkpt><trkpt lat="44.16318196644633" lon="9.649986440131958"><ele>335.0</ele><time>2026-04-12T14:25:31Z</time></trkpt><trkpt lat="44.16325419567669" lon="9.65008033105697"><ele>335.0</ele><time>2026-04-12T14:25:32Z</time></trkpt><trkpt lat="44.163344038216394" lon="9.650150514114168"><ele>335.0</ele><time>2026-04-12T14:25:33Z</time></trkpt><trkpt lat="44.163449672067294" lon="9.65018927783217"><ele>335.0</ele><time>2026-04-12T14:25:34Z</time></trkpt><trkpt lat="44.163549176865494" lon="9.650222971171448"><ele>335.0</ele><time>2026-04-12T14:25:35Z</time></trkpt><trkpt lat="44.16362773737984" lon="9.650265028465325"><ele>335.0</ele><time>2026-04-12T14:25:36Z</time></trkpt><trkpt lat="44.16369655055587" lon="9.650314555168817"><ele>335.0</ele><time>2026-04-12T14:25:37Z</time></trkpt><trkpt lat="44.16376650275087" lon="9.650387724722203"><ele>335.0</ele><time>2026-04-12T14:25:38Z</time></trkpt><trkpt lat="44.16381797650241" lon="9.650487889550336"><ele>335.0</ele><time>2026-04-12T14:25:39Z</time></trkpt><trkpt lat="44.163839169736406" lon="9.650612595372051"><ele>335.0</ele><time>2026-04-12T14:25:40Z</time></trkpt><trkpt lat="44.16382709900222" lon="9.650748890544161"><ele>334.75</ele><time>2026-04-12T14:25:41Z</time></trkpt><trkpt lat="44.16376064514885" lon="9.65087572315199"><ele>334.5</ele><time>2026-04-12T14:25:42Z</time></trkpt><trkpt lat="44.16370260334449" lon="9.651024469866979"><ele>334.25</ele><time>2026-04-12T14:25:43Z</time></trkpt><trkpt lat="44.163639075022154" lon="9.651186834702756"><ele>334.0</ele><time>2026-04-12T14:25:44Z</time></trkpt><trkpt lat="44.163582427675365" lon="9.651346595391772"><ele>333.79999999999995</ele><time>2026-04-12T14:25:45Z</time></trkpt><trkpt lat="44.16356334760758" lon="9.651496673312842"><ele>333.59999999999997</ele><time>2026-04-12T14:25:46.001Z</time></trkpt><trkpt lat="44.163584185901136" lon="9.65163145174219"><ele>333.4</ele><time>2026-04-12T14:25:47.001Z</time></trkpt><trkpt lat="44.163639650915385" lon="9.651752144768674"><ele>333.2</ele><time>2026-04-12T14:25:48.001Z</time></trkpt><trkpt lat="44.16372355628126" lon="9.651863628610624"><ele>333.0</ele><time>2026-04-12T14:25:49.001Z</time></trkpt><trkpt lat="44.16383653144536" lon="9.65197453640485"><ele>333.0</ele><time>2026-04-12T14:25:50.001Z</time></trkpt><trkpt lat="44.16397346436573" lon="9.652072342369626"><ele>333.0</ele><time>2026-04-12T14:25:51.001Z</time></trkpt><trkpt lat="44.16413166560127" lon="9.652169707391609"><ele>333.0</ele><time>2026-04-12T14:25:52.001Z</time></trkpt><trkpt lat="44.1642992975216" lon="9.652258030954098"><ele>338.5</ele><time>2026-04-12T14:25:53.001Z</time></trkpt><trkpt lat="44.164458422746385" lon="9.652346625123014"><ele>344.0</ele><time>2026-04-12T14:25:54.001Z</time></trkpt><trkpt lat="44.164584372388795" lon="9.652415082890679"><ele>349.5</ele><time>2026-04-12T14:25:55.001Z</time></trkpt><trkpt lat="44.16468473193003" lon="9.652470547648239"><ele>355.0</ele><time>2026-04-12T14:25:56.001Z</time></trkpt><trkpt lat="44.16476256110967" lon="9.652541595346706"><ele>355.0</ele><time>2026-04-12T14:25:57.001Z</time></trkpt><trkpt lat="44.1648067604974" lon="9.652642132050907"><ele>355.0</ele><time>2026-04-12T14:25:58.001Z</time></trkpt><trkpt lat="44.16481912069795" lon="9.652761389213039"><ele>355.0</ele><time>2026-04-12T14:25:59.001Z</time></trkpt><trkpt lat="44.16477385895919" lon="9.652883104270508"><ele>355.0</ele><time>2026-04-12T14:26:00.001Z</time></trkpt><trkpt lat="44.16469824851818" lon="9.652989982065446"><ele>355.0</ele><time>2026-04-12T14:26:01.001Z</time></trkpt><trkpt lat="44.164614421761506" lon="9.653139633245214"><ele>355.25</ele><time>2026-04-12T14:26:02.001Z</time></trkpt><trkpt lat="44.164530336652696" lon="9.653314700925792"><ele>355.5</ele><time>2026-04-12T14:26:03.001Z</time></trkpt><trkpt lat="44.164436506020735" lon="9.653464553819774"><ele>355.75</ele><time>2026-04-12T14:26:04.001Z</time></trkpt><trkpt lat="44.1643752489903" lon="9.653601115803404"><ele>356.0</ele><time>2026-04-12T14:26:05.001Z</time></trkpt><trkpt lat="44.16435872198663" lon="9.653730550929795"><ele>356.0</ele><time>2026-04-12T14:26:06.001Z</time></trkpt><trkpt lat="44.16438451532691" lon="9.6538619954301"><ele>356.0</ele><time>2026-04-12T14:26:07.001Z</time></trkpt><trkpt lat="44.16445139034463" lon="9.653981052701985"><ele>356.0</ele><time>2026-04-12T14:26:08.001Z</time></trkpt><trkpt lat="44.16455975415648" lon="9.65409754772209"><ele>356.0</ele><time>2026-04-12T14:26:09.001Z</time></trkpt><trkpt lat="44.16469083537516" lon="9.654216320680282"><ele>356.0</ele><time>2026-04-12T14:26:10.001Z</time></trkpt><trkpt lat="44.16482815062941" lon="9.654359478766327"><ele>356.0</ele><time>2026-04-12T14:26:11.001Z</time></trkpt><trkpt lat="44.16496828026418" lon="9.654525027613808"><ele>356.0</ele><time>2026-04-12T14:26:12.001Z</time></trkpt><trkpt lat="44.16510442433475" lon="9.654694647667643"><ele>361.5</ele><time>2026-04-12T14:26:13.001Z</time></trkpt><trkpt lat="44.16522677259253" lon="9.654828293216928"><ele>367.0</ele><time>2026-04-12T14:26:14.001Z</time></trkpt><trkpt lat="44.16533569177995" lon="9.654939461582178"><ele>372.5</ele><time>2026-04-12T14:26:15.001Z</time></trkpt><trkpt lat="44.16543418400101" lon="9.65504574475299"><ele>378.0</ele><time>2026-04-12T14:26:16.001Z</time></trkpt><trkpt lat="44.1655176170512" lon="9.655180866624029"><ele>381.66666666666663</ele><time>2026-04-12T14:26:17.001Z</time></trkpt><trkpt lat="44.16554600236312" lon="9.65537235940035"><ele>385.3333333333333</ele><time>2026-04-12T14:26:18.001Z</time></trkpt><trkpt lat="44.16558275768692" lon="9.655598349816124"><ele>389.0</ele><time>2026-04-12T14:26:19.001Z</time></trkpt><trkpt lat="44.1656161130037" lon="9.655822124556696"><ele>389.0</ele><time>2026-04-12T14:26:20.001Z</time></trkpt><trkpt lat="44.16565940980936" lon="9.656022330753933"><ele>389.0</ele><time>2026-04-12T14:26:21.001Z</time></trkpt><trkpt lat="44.16568423926755" lon="9.656184048382519"><ele>389.0</ele><time>2026-04-12T14:26:22.001Z</time></trkpt><trkpt lat="44.16568932686465" lon="9.656328965801107"><ele>389.0</ele><time>2026-04-12T14:26:23.001Z</time></trkpt><trkpt lat="44.165688151684066" lon="9.656445093786305"><ele>394.3333333333333</ele><time>2026-04-12T14:26:24.001Z</time></trkpt><trkpt lat="44.16565557762599" lon="9.65652578518257"><ele>399.66666666666663</ele><time>2026-04-12T14:26:25.001Z</time></trkpt><trkpt lat="44.16559614945622" lon="9.656566385051152"><ele>405.0</ele><time>2026-04-12T14:26:26.001Z</time></trkpt><trkpt lat="44.16553379556002" lon="9.656615192557625"><ele>410.33333333333337</ele><time>2026-04-12T14:26:27.001Z</time></trkpt><trkpt lat="44.165439427207154" lon="9.65657239744137"><ele>415.6666666666667</ele><time>2026-04-12T14:26:28.001Z</time></trkpt><trkpt lat="44.1653457170728" lon="9.656507343004835"><ele>421.0</ele><time>2026-04-12T14:26:29.001Z</time></trkpt><trkpt lat="44.16522963576438" lon="9.65645497616915"><ele>421.0</ele><time>2026-04-12T14:26:30.001Z</time></trkpt><trkpt lat="44.165096738825746" lon="9.656383631492579"><ele>421.0</ele><time>2026-04-12T14:26:30.999Z</time></trkpt><trkpt lat="44.16494691562354" lon="9.656338218776161"><ele>421.0</ele><time>2026-04-12T14:26:31.999Z</time></trkpt><trkpt lat="44.1647793179544" lon="9.656305090198366"><ele>419.33333333333337</ele><time>2026-04-12T14:26:32.999Z</time></trkpt><trkpt lat="44.16460586899733" lon="9.65627243179014"><ele>417.66666666666663</ele><time>2026-04-12T14:26:33.999Z</time></trkpt><trkpt lat="44.16445354947404" lon="9.65624797179073"><ele>416.0</ele><time>2026-04-12T14:26:34.999Z</time></trkpt><trkpt lat="44.16432621088205" lon="9.65624256288259"><ele>416.0</ele><time>2026-04-12T14:26:35.999Z</time></trkpt><trkpt lat="44.16421514413589" lon="9.656279989828038"><ele>416.0</ele><time>2026-04-12T14:26:36.999Z</time></trkpt><trkpt lat="44.16411425797382" lon="9.65635519940403"><ele>416.0</ele><time>2026-04-12T14:26:37.999Z</time></trkpt><trkpt lat="44.16403440014628" lon="9.656469886780284"><ele>416.0</ele><time>2026-04-12T14:26:38.999Z</time></trkpt><trkpt lat="44.16398269948509" lon="9.65662455205487"><ele>418.0</ele><time>2026-04-12T14:26:39.999Z</time></trkpt><trkpt lat="44.163949456922516" lon="9.656804474285504"><ele>420.0</ele><time>2026-04-12T14:26:40.999Z</time></trkpt><trkpt lat="44.16390218720796" lon="9.656971560041242"><ele>422.0</ele><time>2026-04-12T14:26:41.999Z</time></trkpt><trkpt lat="44.16385742265835" lon="9.657109744765581"><ele>424.0</ele><time>2026-04-12T14:26:42.999Z</time></trkpt><trkpt lat="44.163811455632086" lon="9.657232385344555"><ele>424.0</ele><time>2026-04-12T14:26:43.999Z</time></trkpt><trkpt lat="44.163707994302136" lon="9.657267276992075"><ele>424.0</ele><time>2026-04-12T14:26:44.999Z</time></trkpt><trkpt lat="44.16361151977115" lon="9.657250980642726"><ele>424.0</ele><time>2026-04-12T14:26:45.999Z</time></trkpt><trkpt lat="44.16348640444126" lon="9.657241516347122"><ele>424.0</ele><time>2026-04-12T14:26:46.999Z</time></trkpt><trkpt lat="44.16335455439957" lon="9.65724536717824"><ele>424.0</ele><time>2026-04-12T14:26:47.999Z</time></trkpt><trkpt lat="44.16323966080221" lon="9.657267632341904"><ele>424.0</ele><time>2026-04-12T14:26:48.999Z</time></trkpt><trkpt lat="44.163146794735844" lon="9.657343832087264"><ele>424.0</ele><time>2026-04-12T14:26:49.999Z</time></trkpt><trkpt lat="44.163085502691345" lon="9.65746359067919"><ele>424.0</ele><time>2026-04-12T14:26:50.999Z</time></trkpt><trkpt lat="44.163060740277956" lon="9.657612101919705"><ele>424.0</ele><time>2026-04-12T14:26:51.999Z</time></trkpt><trkpt lat="44.163073555126324" lon="9.657799651206224"><ele>428.0</ele><time>2026-04-12T14:26:53Z</time></trkpt><trkpt lat="44.16310479618823" lon="9.657998916260503"><ele>432.0</ele><time>2026-04-12T14:26:54Z</time></trkpt><trkpt lat="44.16315545563658" lon="9.658222028593004"><ele>436.0</ele><time>2026-04-12T14:26:55Z</time></trkpt><trkpt lat="44.16320743797756" lon="9.658469619624366"><ele>438.33333333333337</ele><time>2026-04-12T14:26:56Z</time></trkpt><trkpt lat="44.163254149355915" lon="9.658729297584467"><ele>440.66666666666663</ele><time>2026-04-12T14:26:57Z</time></trkpt><trkpt lat="44.16329990372336" lon="9.658973836443032"><ele>443.0</ele><time>2026-04-12T14:26:58Z</time></trkpt><trkpt lat="44.16333873349388" lon="9.659182923469753"><ele>443.0</ele><time>2026-04-12T14:26:59Z</time></trkpt><trkpt lat="44.16337108199097" lon="9.659367096880946"><ele>443.0</ele><time>2026-04-12T14:27:00Z</time></trkpt><trkpt lat="44.16336213592542" lon="9.659527522673805"><ele>443.0</ele><time>2026-04-12T14:27:01Z</time></trkpt><trkpt lat="44.163346405013876" lon="9.65966577328323"><ele>443.0</ele><time>2026-04-12T14:27:02Z</time></trkpt><trkpt lat="44.163280512610214" lon="9.659780953168093"><ele>446.5</ele><time>2026-04-12T14:27:03Z</time></trkpt><trkpt lat="44.16321162452575" lon="9.659912916111304"><ele>450.0</ele><time>2026-04-12T14:27:04Z</time></trkpt><trkpt lat="44.163070756859895" lon="9.659935986981129"><ele>453.5</ele><time>2026-04-12T14:27:05Z</time></trkpt><trkpt lat="44.16292822821778" lon="9.659986377816233"><ele>457.0</ele><time>2026-04-12T14:27:06Z</time></trkpt><trkpt lat="44.16278936143907" lon="9.66002413212895"><ele>456.0</ele><time>2026-04-12T14:27:07Z</time></trkpt><trkpt lat="44.1626636728389" lon="9.659976924127239"><ele>455.0</ele><time>2026-04-12T14:27:08Z</time></trkpt><trkpt lat="44.16253516412998" lon="9.659888984595868"><ele>454.0</ele><time>2026-04-12T14:27:09Z</time></trkpt><trkpt lat="44.162395776525585" lon="9.659775707163336"><ele>453.0</ele><time>2026-04-12T14:27:10Z</time></trkpt><trkpt lat="44.16226039744147" lon="9.659660461340327"><ele>453.0</ele><time>2026-04-12T14:27:11Z</time></trkpt><trkpt lat="44.1621034776375" lon="9.65961099215079"><ele>453.0</ele><time>2026-04-12T14:27:12Z</time></trkpt><trkpt lat="44.16195922560966" lon="9.659590355779915"><ele>453.0</ele><time>2026-04-12T14:27:13Z</time></trkpt><trkpt lat="44.161832496534" lon="9.65959741634965"><ele>453.0</ele><time>2026-04-12T14:27:14Z</time></trkpt><trkpt lat="44.16172430038013" lon="9.659630612986456"><ele>453.0</ele><time>2026-04-12T14:27:15Z</time></trkpt><trkpt lat="44.16164060073195" lon="9.65970761738348"><ele>453.0</ele><time>2026-04-12T14:27:16Z</time></trkpt><trkpt lat="44.16156898540496" lon="9.659840408049535"><ele>453.0</ele><time>2026-04-12T14:27:17Z</time></trkpt><trkpt lat="44.161510732964835" lon="9.660026638484073"><ele>453.0</ele><time>2026-04-12T14:27:18Z</time></trkpt><trkpt lat="44.16145175574458" lon="9.660237040910781"><ele>445.66666666666663</ele><time>2026-04-12T14:27:19Z</time></trkpt><trkpt lat="44.161384826276176" lon="9.660455860929131"><ele>438.3333333333333</ele><time>2026-04-12T14:27:20Z</time></trkpt><trkpt lat="44.161308141970615" lon="9.660676676138669"><ele>431.0</ele><time>2026-04-12T14:27:21Z</time></trkpt><trkpt lat="44.161239769661655" lon="9.660878693476526"><ele>431.0</ele><time>2026-04-12T14:27:22Z</time></trkpt><trkpt lat="44.16120494177319" lon="9.66107141805798"><ele>431.0</ele><time>2026-04-12T14:27:23Z</time></trkpt><trkpt lat="44.16121494322334" lon="9.661262051682385"><ele>431.0</ele><time>2026-04-12T14:27:24Z</time></trkpt><trkpt lat="44.161259297283905" lon="9.661447834165708"><ele>431.0</ele><time>2026-04-12T14:27:25Z</time></trkpt><trkpt lat="44.16132147339633" lon="9.661617884198536"><ele>433.0</ele><time>2026-04-12T14:27:26Z</time></trkpt><trkpt lat="44.161361835858095" lon="9.661797899163794"><ele>435.0</ele><time>2026-04-12T14:27:27Z</time></trkpt><trkpt lat="44.16135943235035" lon="9.661964903902312"><ele>437.0</ele><time>2026-04-12T14:27:28Z</time></trkpt><trkpt lat="44.16126627268553" lon="9.662090706316505"><ele>439.0</ele><time>2026-04-12T14:27:29Z</time></trkpt><trkpt lat="44.161193523520744" lon="9.662263987395253"><ele>445.6666666666667</ele><time>2026-04-12T14:27:30Z</time></trkpt><trkpt lat="44.16112415952159" lon="9.662464400169076"><ele>452.33333333333337</ele><time>2026-04-12T14:27:31Z</time></trkpt><trkpt lat="44.16104054883166" lon="9.662670966508685"><ele>459.0</ele><time>2026-04-12T14:27:32Z</time></trkpt><trkpt lat="44.16096050503005" lon="9.662897116529779"><ele>464.33333333333337</ele><time>2026-04-12T14:27:33Z</time></trkpt><trkpt lat="44.16089833871106" lon="9.663148717168834"><ele>469.6666666666667</ele><time>2026-04-12T14:27:34Z</time></trkpt><trkpt lat="44.16083828661511" lon="9.663382614793314"><ele>475.0</ele><time>2026-04-12T14:27:35Z</time></trkpt><trkpt lat="44.16078040820657" lon="9.66359327712075"><ele>473.6666666666667</ele><time>2026-04-12T14:27:36Z</time></trkpt><trkpt lat="44.16072183577238" lon="9.663782645142946"><ele>472.33333333333337</ele><time>2026-04-12T14:27:37Z</time></trkpt><trkpt lat="44.160618115247374" lon="9.663931759844852"><ele>471.0</ele><time>2026-04-12T14:27:38Z</time></trkpt><trkpt lat="44.160505331449826" lon="9.664091397204322"><ele>471.0</ele><time>2026-04-12T14:27:39Z</time></trkpt><trkpt lat="44.16039013150202" lon="9.664277483700511"><ele>471.0</ele><time>2026-04-12T14:27:40.001Z</time></trkpt><trkpt lat="44.160264374235915" lon="9.664452441995566"><ele>471.0</ele><time>2026-04-12T14:27:41.001Z</time></trkpt><trkpt lat="44.160137788177444" lon="9.664625468852803"><ele>473.0</ele><time>2026-04-12T14:27:42.001Z</time></trkpt><trkpt lat="44.16001304952346" lon="9.664790782340916"><ele>475.0</ele><time>2026-04-12T14:27:43.001Z</time></trkpt><trkpt lat="44.15989632784779" lon="9.664957397854938"><ele>477.0</ele><time>2026-04-12T14:27:44.001Z</time></trkpt><trkpt lat="44.15977367454875" lon="9.665106903340089"><ele>477.0</ele><time>2026-04-12T14:27:45.001Z</time></trkpt><trkpt lat="44.15963988942756" lon="9.665238515384136"><ele>477.0</ele><time>2026-04-12T14:27:46.001Z</time></trkpt><trkpt lat="44.15948284252689" lon="9.66531397089763"><ele>477.0</ele><time>2026-04-12T14:27:47.001Z</time></trkpt><trkpt lat="44.159316717611034" lon="9.665380105448442"><ele>485.0</ele><time>2026-04-12T14:27:48.001Z</time></trkpt><trkpt lat="44.15914698923651" lon="9.665450513879799"><ele>493.0</ele><time>2026-04-12T14:27:49.001Z</time></trkpt><trkpt lat="44.15898233820157" lon="9.665537174680198"><ele>501.0</ele><time>2026-04-12T14:27:50.001Z</time></trkpt><trkpt lat="44.15881067718439" lon="9.66559931464213"><ele>501.0</ele><time>2026-04-12T14:27:51.001Z</time></trkpt><trkpt lat="44.158629861610905" lon="9.665664505426793"><ele>501.0</ele><time>2026-04-12T14:27:52.001Z</time></trkpt><trkpt lat="44.15844314340743" lon="9.665719231488486"><ele>501.0</ele><time>2026-04-12T14:27:53.001Z</time></trkpt><trkpt lat="44.15824144778984" lon="9.665765196099862"><ele>501.33333333333337</ele><time>2026-04-12T14:27:54.001Z</time></trkpt><trkpt lat="44.15803381783709" lon="9.665806553882428"><ele>501.6666666666667</ele><time>2026-04-12T14:27:55.001Z</time></trkpt><trkpt lat="44.157820795279946" lon="9.665846818611714"><ele>502.0</ele><time>2026-04-12T14:27:56.001Z</time></trkpt><trkpt lat="44.157609749496736" lon="9.665881687277638"><ele>502.0</ele><time>2026-04-12T14:27:57.001Z</time></trkpt><trkpt lat="44.15740730177192" lon="9.665922832805611"><ele>502.0</ele><time>2026-04-12T14:27:58.001Z</time></trkpt><trkpt lat="44.15721021777847" lon="9.665984196487074"><ele>502.0</ele><time>2026-04-12T14:27:59.001Z</time></trkpt><trkpt lat="44.15702365334043" lon="9.666072027940467"><ele>505.6666666666667</ele><time>2026-04-12T14:28:00.001Z</time></trkpt><trkpt lat="44.15683789929524" lon="9.666183749091617"><ele>509.33333333333337</ele><time>2026-04-12T14:28:01.001Z</time></trkpt><trkpt lat="44.15664636259375" lon="9.666230522040784"><ele>513.0</ele><time>2026-04-12T14:28:02.001Z</time></trkpt><trkpt lat="44.156462006227734" lon="9.666226151543409"><ele>516.0</ele><time>2026-04-12T14:28:03.001Z</time></trkpt><trkpt lat="44.156281415908396" lon="9.666222667487038"><ele>519.0</ele><time>2026-04-12T14:28:04.001Z</time></trkpt><trkpt lat="44.156090145313826" lon="9.666249553730465"><ele>522.0</ele><time>2026-04-12T14:28:05.001Z</time></trkpt><trkpt lat="44.15588830395157" lon="9.666293454415138"><ele>516.3333333333334</ele><time>2026-04-12T14:28:06.001Z</time></trkpt><trkpt lat="44.15570349325916" lon="9.666359856574143"><ele>510.6666666666667</ele><time>2026-04-12T14:28:07.001Z</time></trkpt><trkpt lat="44.15554114398334" lon="9.66641731973505"><ele>505.0</ele><time>2026-04-12T14:28:08.001Z</time></trkpt><trkpt lat="44.15539500545722" lon="9.666463226156713"><ele>505.0</ele><time>2026-04-12T14:28:09.001Z</time></trkpt><trkpt lat="44.15525860971265" lon="9.666511347964212"><ele>505.0</ele><time>2026-04-12T14:28:10.001Z</time></trkpt><trkpt lat="44.15514245524846" lon="9.666595205232223"><ele>505.0</ele><time>2026-04-12T14:28:11.001Z</time></trkpt><trkpt lat="44.15504923528733" lon="9.666717695055402"><ele>505.0</ele><time>2026-04-12T14:28:12.001Z</time></trkpt><trkpt lat="44.15499620995555" lon="9.666879560441226"><ele>506.75</ele><time>2026-04-12T14:28:13.001Z</time></trkpt><trkpt lat="44.15497160775591" lon="9.667068959529638"><ele>508.5</ele><time>2026-04-12T14:28:14.001Z</time></trkpt><trkpt lat="44.15497874635308" lon="9.667279524330288"><ele>510.25</ele><time>2026-04-12T14:28:15.001Z</time></trkpt><trkpt lat="44.15502339406909" lon="9.667493659785155"><ele>512.0</ele><time>2026-04-12T14:28:16.001Z</time></trkpt><trkpt lat="44.155077974948085" lon="9.66769348800738"><ele>513.5</ele><time>2026-04-12T14:28:17.001Z</time></trkpt><trkpt lat="44.15508181922758" lon="9.667883634611604"><ele>515.0</ele><time>2026-04-12T14:28:18.001Z</time></trkpt><trkpt lat="44.15505662057" lon="9.668059490491611"><ele>516.5</ele><time>2026-04-12T14:28:19.001Z</time></trkpt><trkpt lat="44.1549784357579" lon="9.668216005294843"><ele>518.0</ele><time>2026-04-12T14:28:20.001Z</time></trkpt><trkpt lat="44.15493755907472" lon="9.66840065396984"><ele>518.0</ele><time>2026-04-12T14:28:21.001Z</time></trkpt><trkpt lat="44.154894889001106" lon="9.668584093304831"><ele>518.0</ele><time>2026-04-12T14:28:22.001Z</time></trkpt><trkpt lat="44.154897948699315" lon="9.668792177858982"><ele>518.0</ele><time>2026-04-12T14:28:23.001Z</time></trkpt><trkpt lat="44.1549280615121" lon="9.66899866224951"><ele>518.0</ele><time>2026-04-12T14:28:24.001Z</time></trkpt><trkpt lat="44.15492772542219" lon="9.669158366764844"><ele>520.1999999999999</ele><time>2026-04-12T14:28:25.001Z</time></trkpt><trkpt lat="44.15486625706317" lon="9.669269280793523"><ele>522.4</ele><time>2026-04-12T14:28:26.001Z</time></trkpt><trkpt lat="44.15480282753395" lon="9.669373368064972"><ele>524.5999999999999</ele><time>2026-04-12T14:28:27.001Z</time></trkpt><trkpt lat="44.15469239643329" lon="9.66936847290529"><ele>526.8</ele><time>2026-04-12T14:28:28.001Z</time></trkpt><trkpt lat="44.1545809122332" lon="9.6693157603078"><ele>529.0</ele><time>2026-04-12T14:28:29.001Z</time></trkpt><trkpt lat="44.15445772888104" lon="9.669248360874276"><ele>529.0</ele><time>2026-04-12T14:28:30.001Z</time></trkpt><trkpt lat="44.15431330176406" lon="9.6691670697824"><ele>529.0</ele><time>2026-04-12T14:28:31.001Z</time></trkpt><trkpt lat="44.15415867264997" lon="9.669086050019501"><ele>529.0</ele><time>2026-04-12T14:28:32.001Z</time></trkpt><trkpt lat="44.15402499684824" lon="9.668987387450112"><ele>527.75</ele><time>2026-04-12T14:28:33.001Z</time></trkpt><trkpt lat="44.15390372454319" lon="9.668927749557696"><ele>526.5</ele><time>2026-04-12T14:28:34.001Z</time></trkpt><trkpt lat="44.15378366459704" lon="9.668909429986925"><ele>525.25</ele><time>2026-04-12T14:28:35.001Z</time></trkpt><trkpt lat="44.15366000283045" lon="9.668946601913888"><ele>524.0</ele><time>2026-04-12T14:28:36.001Z</time></trkpt><trkpt lat="44.153522581358644" lon="9.669038867989558"><ele>524.0</ele><time>2026-04-12T14:28:36.999Z</time></trkpt><trkpt lat="44.153375609728705" lon="9.669168140206457"><ele>524.0</ele><time>2026-04-12T14:28:37.999Z</time></trkpt><trkpt lat="44.153235202337" lon="9.669288750751099"><ele>524.0</ele><time>2026-04-12T14:28:38.999Z</time></trkpt><trkpt lat="44.15311665583056" lon="9.669393854963142"><ele>519.8</ele><time>2026-04-12T14:28:39.999Z</time></trkpt><trkpt lat="44.15303217747671" lon="9.669491396814728"><ele>515.5999999999999</ele><time>2026-04-12T14:28:40.999Z</time></trkpt><trkpt lat="44.15299831889622" lon="9.669610099811852"><ele>511.4</ele><time>2026-04-12T14:28:41.999Z</time></trkpt><trkpt lat="44.15298957732659" lon="9.669764148405294"><ele>507.2</ele><time>2026-04-12T14:28:42.999Z</time></trkpt><trkpt lat="44.15300893117954" lon="9.669946877888092"><ele>503.0</ele><time>2026-04-12T14:28:43.999Z</time></trkpt><trkpt lat="44.15305537642201" lon="9.670147657440138"><ele>503.66666666666663</ele><time>2026-04-12T14:28:44.999Z</time></trkpt><trkpt lat="44.1531046671316" lon="9.67036878621053"><ele>504.33333333333337</ele><time>2026-04-12T14:28:45.999Z</time></trkpt><trkpt lat="44.15314700813917" lon="9.670598017772544"><ele>505.0</ele><time>2026-04-12T14:28:46.999Z</time></trkpt><trkpt lat="44.15318833915905" lon="9.670844472429616"><ele>516.0</ele><time>2026-04-12T14:28:47.999Z</time></trkpt><trkpt lat="44.153227634766765" lon="9.671090584911207"><ele>527.0</ele><time>2026-04-12T14:28:48.999Z</time></trkpt><trkpt lat="44.15326839304349" lon="9.671328081434261"><ele>538.0</ele><time>2026-04-12T14:28:49.999Z</time></trkpt><trkpt lat="44.15331388640974" lon="9.671547995586636"><ele>540.0</ele><time>2026-04-12T14:28:50.999Z</time></trkpt><trkpt lat="44.15338401767755" lon="9.67175685540757"><ele>542.0</ele><time>2026-04-12T14:28:51.999Z</time></trkpt><trkpt lat="44.15347393619198" lon="9.671935682530085"><ele>544.0</ele><time>2026-04-12T14:28:52.999Z</time></trkpt><trkpt lat="44.15356741022035" lon="9.672092965206044"><ele>546.0</ele><time>2026-04-12T14:28:53.999Z</time></trkpt><trkpt lat="44.15364983120783" lon="9.67223681984314"><ele>548.0</ele><time>2026-04-12T14:28:55Z</time></trkpt><trkpt lat="44.153715747035854" lon="9.672364635142848"><ele>550.0</ele><time>2026-04-12T14:28:56Z</time></trkpt><trkpt lat="44.153772918480776" lon="9.67247774077857"><ele>552.0</ele><time>2026-04-12T14:28:57Z</time></trkpt><trkpt lat="44.15380893278159" lon="9.67256626336501"><ele>554.0</ele><time>2026-04-12T14:28:58Z</time></trkpt><trkpt lat="44.15384987684452" lon="9.672672080851338"><ele>554.0</ele><time>2026-04-12T14:29:00Z</time></trkpt><trkpt lat="44.15388073226735" lon="9.672768676898077"><ele>554.0</ele><time>2026-04-12T14:29:03Z</time></trkpt></trkseg></trk></gpx>